Time;durP1;ratioP1;P1;durP2;ratioP2;P2;SDS_P1;SDS_P2;PMS_P1;PMS_P2;Temp;Humidity;BMP_temperature;BMP_pressure;BME280_temperature;BME280_humidity;BME280_pressure;Samples;Min_cycle;Max_cycle;Signal;HPM_P1;HPM_P2
2021/03/05 00:01:46;;;;;;;2.28;2.17;;;18.70;66.90;;;;;;5098863;28;20063;-33
2021/03/05 00:04:12;;;;;;;2.50;2.40;;;18.70;66.90;;;;;;5103203;28;22879;-35
2021/03/05 00:06:37;;;;;;;2.65;2.53;;;18.70;66.70;;;;;;5099767;28;20043;-37
2021/03/05 00:09:03;;;;;;;3.40;2.33;;;18.70;66.90;;;;;;5105865;28;20409;-34
2021/03/05 00:11:29;;;;;;;2.70;2.53;;;18.60;67.00;;;;;;5094803;28;20115;-36
2021/03/05 00:13:54;;;;;;;2.40;2.30;;;18.70;67.20;;;;;;5094454;28;20151;-39
2021/03/05 00:16:20;;;;;;;2.15;2.05;;;18.60;66.90;;;;;;5094909;28;20070;-33
2021/03/05 00:18:45;;;;;;;2.92;2.65;;;18.60;67.00;;;;;;5105742;28;20039;-34
2021/03/05 00:21:11;;;;;;;2.50;2.30;;;18.70;66.90;;;;;;5091115;28;20048;-36
2021/03/05 00:23:36;;;;;;;2.65;2.55;;;18.70;66.80;;;;;;5094708;28;20549;-36
2021/03/05 00:26:02;;;;;;;2.40;2.20;;;18.70;66.90;;;;;;5097327;28;20039;-36
2021/03/05 00:28:28;;;;;;;2.30;2.10;;;18.60;66.90;;;;;;5100684;28;20048;-41
2021/03/05 00:30:53;;;;;;;2.40;2.30;;;18.60;66.90;;;;;;5104390;28;20047;-32
2021/03/05 00:33:19;;;;;;;2.50;2.40;;;18.70;66.70;;;;;;5103672;28;20059;-35
2021/03/05 00:35:44;;;;;;;2.10;2.00;;;18.70;66.70;;;;;;5109482;28;20039;-35
2021/03/05 00:38:10;;;;;;;2.55;2.35;;;18.60;66.80;;;;;;5102040;28;20398;-32
2021/03/05 00:40:36;;;;;;;2.10;2.00;;;18.60;66.70;;;;;;5099369;27;20052;-35
2021/03/05 00:43:01;;;;;;;2.30;2.20;;;18.60;66.70;;;;;;5093592;28;20044;-34
2021/03/05 00:45:27;;;;;;;2.13;2.03;;;18.60;66.90;;;;;;5090829;28;20036;-36
2021/03/05 00:47:52;;;;;;;1.90;1.80;;;18.60;66.60;;;;;;5108632;28;20456;-44
2021/03/05 00:50:18;;;;;;;2.40;2.20;;;18.70;66.60;;;;;;5094652;28;20062;-39
2021/03/05 00:52:44;;;;;;;2.20;2.10;;;18.60;66.60;;;;;;5097688;28;20083;-39
2021/03/05 00:55:10;;;;;;;2.00;1.90;;;18.60;66.50;;;;;;5100725;28;20063;-36
2021/03/05 00:57:36;;;;;;;2.00;1.90;;;18.60;66.50;;;;;;5104592;28;20393;-32
2021/03/05 01:00:07;;;;;;;2.20;2.10;;;18.60;66.60;;;;;;5104014;28;20043;-33
2021/03/05 01:02:33;;;;;;;2.20;2.10;;;18.70;66.50;;;;;;5094272;28;20072;-32
2021/03/05 01:04:58;;;;;;;2.55;2.20;;;18.60;66.50;;;;;;5094077;28;20048;-32
2021/03/05 01:07:24;;;;;;;2.25;2.15;;;18.60;66.40;;;;;;5092522;28;20040;-36
2021/03/05 01:09:51;;;;;;;2.15;2.03;;;18.60;66.60;;;;;;5093487;28;20050;-36
2021/03/05 01:12:17;;;;;;;2.75;2.55;;;18.50;66.60;;;;;;5088730;28;20072;-36
2021/03/05 01:14:43;;;;;;;2.38;2.17;;;18.60;66.20;;;;;;5094200;28;20594;-38
2021/03/05 01:17:09;;;;;;;2.72;2.55;;;18.60;66.30;;;;;;5088354;28;20039;-37
2021/03/05 01:19:34;;;;;;;2.10;2.00;;;18.70;66.20;;;;;;5107702;28;20078;-34
2021/03/05 01:22:00;;;;;;;2.10;2.00;;;18.60;66.20;;;;;;5094687;28;20040;-34
2021/03/05 01:24:25;;;;;;;1.98;1.88;;;18.60;66.30;;;;;;5090441;28;20067;-34
2021/03/05 01:26:52;;;;;;;2.03;1.92;;;18.60;66.20;;;;;;5104923;28;20036;-34
2021/03/05 01:29:18;;;;;;;1.88;1.77;;;18.60;66.30;;;;;;5102610;28;20098;-34
2021/03/05 01:31:43;;;;;;;2.50;2.33;;;18.60;66.30;;;;;;5104509;28;20836;-36
2021/03/05 01:34:09;;;;;;;5.57;2.17;;;18.70;66.00;;;;;;5100005;28;20048;-35
2021/03/05 01:36:34;;;;;;;1.73;1.63;;;18.60;66.00;;;;;;5106101;28;20436;-38
2021/03/05 01:39:00;;;;;;;1.88;1.77;;;18.60;66.00;;;;;;5091639;28;20097;-36
2021/03/05 01:41:25;;;;;;;2.30;2.10;;;18.60;66.10;;;;;;5103933;27;20035;-35
2021/03/05 01:43:51;;;;;;;2.03;1.92;;;18.60;66.10;;;;;;5098473;28;20048;-38
2021/03/05 01:46:20;;;;;;;2.20;2.10;;;18.60;66.10;;;;;;5100441;28;20071;-33
2021/03/05 01:48:46;;;;;;;2.05;1.95;;;18.60;66.10;;;;;;5102255;28;20048;-36
2021/03/05 01:51:17;;;;;;;1.92;1.83;;;18.60;66.20;;;;;;5087640;28;20195;-33
2021/03/05 01:53:42;;;;;;;1.55;1.45;;;18.60;66.20;;;;;;5097639;28;20044;-37
2021/03/05 01:56:08;;;;;;;1.63;1.52;;;18.60;66.30;;;;;;5095853;28;20054;-32
2021/03/05 01:58:34;;;;;;;1.90;1.80;;;18.60;66.20;;;;;;5099542;28;20039;-38
2021/03/05 02:01:09;;;;;;;1.90;1.80;;;18.60;66.00;;;;;;5109384;28;20051;-36
2021/03/05 02:03:35;;;;;;;1.90;1.80;;;18.60;66.00;;;;;;5107199;27;20044;-39
2021/03/05 02:06:02;;;;;;;1.75;1.65;;;18.60;66.10;;;;;;5108504;28;20058;-36
2021/03/05 02:08:28;;;;;;;1.92;1.83;;;18.50;66.20;;;;;;5102714;28;20473;-35
2021/03/05 02:10:53;;;;;;;1.77;1.67;;;18.60;66.20;;;;;;5098953;28;20051;-34
2021/03/05 02:13:19;;;;;;;2.55;1.92;;;18.50;66.10;;;;;;5099311;28;20088;-35
2021/03/05 02:15:45;;;;;;;1.60;1.50;;;18.60;66.00;;;;;;5097562;28;20439;-32
2021/03/05 02:18:30;;;;;;;1.80;1.70;;;18.50;65.90;;;;;;5109753;27;20134;-36
2021/03/05 02:21:33;;;;;;;1.58;1.48;;;18.50;65.90;;;;;;5107774;28;20355;-37
2021/03/05 02:24:23;;;;;;;1.80;1.70;;;18.60;65.90;;;;;;5106543;28;20048;-36
2021/03/05 02:27:13;;;;;;;1.60;1.50;;;18.60;65.70;;;;;;5123969;27;20127;-35
2021/03/05 02:29:56;;;;;;;2.00;1.90;;;18.60;65.80;;;;;;5095446;28;20047;-39
2021/03/05 02:32:25;;;;;;;1.90;1.80;;;18.60;65.80;;;;;;5091741;28;20521;-39
2021/03/05 02:34:51;;;;;;;1.48;1.48;;;18.50;65.90;;;;;;5098181;28;20516;-36
2021/03/05 02:37:16;;;;;;;1.85;1.75;;;18.50;65.90;;;;;;5105453;28;20059;-36
2021/03/05 02:39:46;;;;;;;1.80;1.70;;;18.50;65.90;;;;;;5093582;28;20119;-43
2021/03/05 02:42:33;;;;;;;1.80;1.70;;;18.50;65.80;;;;;;5095860;27;20417;-33
2021/03/05 02:45:07;;;;;;;1.65;1.55;;;18.60;65.70;;;;;;5106698;28;20065;-33
2021/03/05 02:47:33;;;;;;;1.60;1.50;;;18.60;66.50;;;;;;5107770;28;20039;-39
2021/03/05 02:49:59;;;;;;;1.67;1.60;;;18.60;65.50;;;;;;5104198;28;20051;-34
2021/03/05 02:52:24;;;;;;;1.55;1.55;;;18.70;65.30;;;;;;5084572;28;20096;-34
2021/03/05 02:54:55;;;;;;;1.60;1.50;;;18.60;65.50;;;;;;5105379;28;20094;-36
2021/03/05 02:57:21;;;;;;;1.92;1.83;;;18.60;65.60;;;;;;5075563;28;20067;-33
2021/03/05 02:59:47;;;;;;;1.63;1.52;;;18.60;65.50;;;;;;5105901;28;20456;-36
2021/03/05 03:02:12;;;;;;;1.95;1.65;;;18.60;65.50;;;;;;5105286;28;20092;-34
2021/03/05 03:04:40;;;;;;;1.60;1.50;;;18.60;65.60;;;;;;5102889;28;20061;-36
2021/03/05 03:07:05;;;;;;;1.50;1.50;;;18.60;65.60;;;;;;5103988;28;20130;-34
2021/03/05 03:09:32;;;;;;;1.48;1.38;;;18.60;65.40;;;;;;5091389;28;20272;-32
2021/03/05 03:11:57;;;;;;;1.60;1.50;;;18.60;65.30;;;;;;5105210;28;20051;-33
2021/03/05 03:14:23;;;;;;;1.60;1.50;;;18.60;65.30;;;;;;5108555;28;20047;-37
2021/03/05 03:16:48;;;;;;;1.13;1.10;;;18.60;65.20;;;;;;5100679;28;20048;-31
2021/03/05 03:19:15;;;;;;;1.52;1.42;;;18.60;65.10;;;;;;5096378;28;20048;-35
2021/03/05 03:21:40;;;;;;;1.48;1.38;;;18.60;65.20;;;;;;5101949;28;20055;-34
2021/03/05 03:24:07;;;;;;;1.65;1.55;;;18.60;65.30;;;;;;5105931;28;20050;-37
2021/03/05 03:26:35;;;;;;;1.50;1.40;;;18.50;65.50;;;;;;5105719;27;20043;-37
2021/03/05 03:29:00;;;;;;;1.60;1.50;;;18.50;65.50;;;;;;5103562;28;20584;-35
2021/03/05 03:31:26;;;;;;;1.70;1.60;;;18.50;65.50;;;;;;5106695;28;20134;-34
2021/03/05 03:33:51;;;;;;;1.20;1.10;;;18.50;65.50;;;;;;5088791;28;20047;-35
2021/03/05 03:36:17;;;;;;;1.30;1.30;;;18.50;65.40;;;;;;5107705;28;20071;-36
2021/03/05 03:38:43;;;;;;;1.50;1.50;;;18.60;65.40;;;;;;5073671;28;20047;-36
2021/03/05 03:41:08;;;;;;;1.30;1.30;;;18.60;65.30;;;;;;5100365;28;20040;-36
2021/03/05 03:43:34;;;;;;;1.20;1.20;;;18.60;65.30;;;;;;5101707;28;20492;-36
2021/03/05 03:45:59;;;;;;;1.23;1.15;;;18.50;65.20;;;;;;5094190;28;20032;-39
2021/03/05 03:48:26;;;;;;;1.20;1.20;;;18.50;65.30;;;;;;5092323;27;20191;-36
2021/03/05 03:50:57;;;;;;;1.02;1.02;;;18.50;65.30;;;;;;5077470;28;20451;-33
2021/03/05 03:53:27;;;;;;;1.27;1.27;;;18.60;65.30;;;;;;5102647;28;20514;-32
2021/03/05 03:55:53;;;;;;;1.10;1.10;;;18.50;65.50;;;;;;5103915;28;20074;-34
2021/03/05 03:58:23;;;;;;;1.35;1.30;;;18.50;65.70;;;;;;5102570;28;20036;-36
2021/03/05 04:00:51;;;;;;;1.17;1.02;;;18.50;65.60;;;;;;5091111;28;20043;-32
2021/03/05 04:03:17;;;;;;;1.20;1.10;;;18.60;65.30;;;;;;5102052;28;20097;-32
2021/03/05 04:05:44;;;;;;;1.10;1.10;;;18.60;65.30;;;;;;5101662;28;20043;-32
2021/03/05 04:08:09;;;;;;;1.38;1.27;;;18.50;65.10;;;;;;5108373;28;20051;-36
2021/03/05 04:10:35;;;;;;;1.48;1.38;;;18.50;65.40;;;;;;5105942;28;20409;-33
2021/03/05 04:13:01;;;;;;;1.30;1.20;;;18.40;65.70;;;;;;5102421;28;20054;-38
2021/03/05 04:15:27;;;;;;;1.10;1.10;;;18.40;65.80;;;;;;5104074;28;20107;-33
2021/03/05 04:17:52;;;;;;;1.30;1.30;;;18.50;65.60;;;;;;5108680;28;20122;-35
2021/03/05 04:20:20;;;;;;;0.85;0.85;;;18.40;65.50;;;;;;5099451;28;20118;-34
2021/03/05 04:22:46;;;;;;;0.90;0.90;;;18.50;65.50;;;;;;5102687;28;20039;-36
2021/03/05 04:25:13;;;;;;;1.00;1.00;;;18.50;65.20;;;;;;5101984;28;20063;-33
2021/03/05 04:27:38;;;;;;;1.00;1.00;;;18.50;65.20;;;;;;5090759;28;20130;-36
2021/03/05 04:30:06;;;;;;;0.80;0.80;;;18.50;65.10;;;;;;5098116;28;20523;-38
2021/03/05 04:32:32;;;;;;;1.27;1.02;;;18.50;65.20;;;;;;5094807;28;20052;-35
2021/03/05 04:34:57;;;;;;;1.00;1.00;;;18.50;65.20;;;;;;5099315;28;20047;-33
2021/03/05 04:37:23;;;;;;;1.20;1.20;;;18.40;65.30;;;;;;5096294;28;20459;-32
2021/03/05 04:39:49;;;;;;;1.20;1.20;;;18.40;65.20;;;;;;5103644;28;20085;-33
2021/03/05 04:42:14;;;;;;;0.93;0.93;;;18.50;65.00;;;;;;5106409;28;20024;-34
2021/03/05 04:44:40;;;;;;;0.93;0.93;;;18.50;65.00;;;;;;5104536;28;20520;-35
2021/03/05 04:47:05;;;;;;;0.85;0.85;;;18.40;65.00;;;;;;5102709;28;20096;-34
2021/03/05 04:49:31;;;;;;;0.70;0.70;;;18.40;64.90;;;;;;5099889;28;20515;-33
2021/03/05 04:51:56;;;;;;;0.88;0.88;;;18.50;65.10;;;;;;5103554;28;20096;-31
2021/03/05 04:54:22;;;;;;;0.90;0.90;;;18.50;64.80;;;;;;5101140;28;20403;-37
2021/03/05 04:56:48;;;;;;;1.15;1.05;;;18.50;64.90;;;;;;5107384;28;20047;-32
2021/03/05 04:59:13;;;;;;;1.08;0.90;;;18.50;64.80;;;;;;5094671;28;20090;-37
2021/03/05 05:01:39;;;;;;;1.58;1.00;;;18.50;65.50;;;;;;5095584;28;20047;-36
2021/03/05 05:04:04;;;;;;;0.70;0.70;;;18.40;64.80;;;;;;5093113;28;20555;-31
2021/03/05 05:06:30;;;;;;;0.90;0.90;;;18.50;64.80;;;;;;5098738;28;20048;-34
2021/03/05 05:08:56;;;;;;;1.02;1.02;;;18.40;64.70;;;;;;5097381;28;20130;-38
2021/03/05 05:11:22;;;;;;;0.90;0.90;;;18.40;65.00;;;;;;5107687;28;20051;-37
2021/03/05 05:13:47;;;;;;;0.80;0.80;;;18.40;65.00;;;;;;5095318;28;20073;-37
2021/03/05 05:16:13;;;;;;;1.00;1.00;;;18.40;65.00;;;;;;5095992;28;20130;-34
2021/03/05 05:18:38;;;;;;;2.05;0.93;;;18.40;64.70;;;;;;5103689;28;20024;-40
2021/03/05 05:21:04;;;;;;;0.80;0.80;;;18.40;64.90;;;;;;5104864;28;20119;-35
2021/03/05 05:23:30;;;;;;;0.90;0.90;;;18.40;65.00;;;;;;5104447;28;20039;-33
2021/03/05 05:25:55;;;;;;;0.90;0.90;;;18.30;65.10;;;;;;5100515;28;20043;-30
2021/03/05 05:28:21;;;;;;;0.70;0.70;;;18.30;65.00;;;;;;5106628;28;20418;-34
2021/03/05 05:30:46;;;;;;;0.80;0.80;;;18.40;64.90;;;;;;5109023;28;20036;-41
2021/03/05 05:33:12;;;;;;;0.85;0.85;;;18.40;64.60;;;;;;5102240;28;20071;-37
2021/03/05 05:35:37;;;;;;;1.00;1.00;;;18.40;64.70;;;;;;5100602;28;20493;-31
2021/03/05 05:38:03;;;;;;;0.70;0.70;;;18.30;64.80;;;;;;5105701;28;20036;-33
2021/03/05 05:40:29;;;;;;;0.77;0.77;;;18.30;64.80;;;;;;5106241;28;20443;-33
2021/03/05 05:42:55;;;;;;;0.85;0.85;;;18.40;64.80;;;;;;5108817;28;20043;-37
2021/03/05 05:45:20;;;;;;;0.90;0.90;;;18.40;64.70;;;;;;5094362;28;20077;-33
2021/03/05 05:47:46;;;;;;;0.90;0.90;;;18.40;64.90;;;;;;5110562;28;20499;-35
2021/03/05 05:50:12;;;;;;;1.02;1.02;;;18.30;64.80;;;;;;5099371;28;20101;-35
2021/03/05 05:52:37;;;;;;;0.95;0.95;;;18.40;64.70;;;;;;5098039;28;20490;-32
2021/03/05 05:55:07;;;;;;;0.90;0.73;;;18.40;64.60;;;;;;5108078;28;20047;-33
2021/03/05 05:57:34;;;;;;;0.80;0.80;;;18.30;64.60;;;;;;5107529;27;20418;-33
2021/03/05 06:00:00;;;;;;;0.90;0.90;;;18.40;64.60;;;;;;5094878;28;20127;-38
2021/03/05 06:02:26;;;;;;;0.65;0.65;;;18.40;64.50;;;;;;5110945;28;20131;-34
2021/03/05 06:04:55;;;;;;;0.90;0.90;;;18.30;64.60;;;;;;5101988;28;20089;-38
2021/03/05 06:07:22;;;;;;;0.90;0.90;;;18.40;64.60;;;;;;5097406;28;20055;-39
2021/03/05 06:09:49;;;;;;;1.17;1.10;;;18.30;64.70;;;;;;5092954;28;20043;-39
2021/03/05 06:12:15;;;;;;;0.93;0.93;;;18.30;64.60;;;;;;5109623;28;20051;-33
2021/03/05 06:14:41;;;;;;;1.13;0.93;;;18.30;64.40;;;;;;5102070;28;20056;-34
2021/03/05 06:17:07;;;;;;;0.80;0.80;;;18.30;64.40;;;;;;5101621;28;20043;-36
2021/03/05 06:19:32;;;;;;;0.90;0.90;;;18.40;64.40;;;;;;5099922;28;20051;-36
2021/03/05 06:21:58;;;;;;;0.93;0.90;;;18.40;64.40;;;;;;5093716;28;20067;-37
2021/03/05 06:24:23;;;;;;;0.80;0.80;;;18.40;64.30;;;;;;5102954;28;20126;-36
2021/03/05 06:26:54;;;;;;;0.88;0.88;;;18.30;64.50;;;;;;5103554;28;20036;-33
2021/03/05 06:29:42;;;;;;;0.77;0.77;;;18.30;65.30;;;;;;5103313;28;20066;-35
2021/03/05 06:32:09;;;;;;;0.60;0.60;;;18.30;64.60;;;;;;5098125;28;20048;-33
2021/03/05 06:34:53;;;;;;;0.75;0.75;;;18.30;64.50;;;;;;5100263;27;20051;-33
2021/03/05 06:37:21;;;;;;;0.57;0.57;;;18.30;64.50;;;;;;5102380;28;20074;-31
2021/03/05 06:39:59;;;;;;;0.80;0.80;;;18.30;64.40;;;;;;5102259;28;20059;-41
2021/03/05 06:42:25;;;;;;;0.70;0.70;;;18.30;64.50;;;;;;5091451;28;20414;-36
2021/03/05 06:44:50;;;;;;;0.73;0.73;;;18.30;64.60;;;;;;5098226;28;20039;-36
2021/03/05 06:47:20;;;;;;;0.63;0.63;;;18.30;64.40;;;;;;5096664;28;20464;-37
2021/03/05 06:49:47;;;;;;;0.80;0.80;;;18.30;64.40;;;;;;5099070;28;20528;-34
2021/03/05 06:52:13;;;;;;;0.70;0.70;;;18.30;64.40;;;;;;5106563;28;20509;-35
2021/03/05 06:54:40;;;;;;;0.57;0.57;;;18.30;64.40;;;;;;5106413;27;20178;-35
2021/03/05 06:57:06;;;;;;;0.80;0.80;;;18.30;64.50;;;;;;5101385;28;20035;-36
2021/03/05 06:59:44;;;;;;;0.77;0.70;;;18.20;64.50;;;;;;5095916;28;20097;-33
2021/03/05 07:02:17;;;;;;;1.23;0.57;;;18.30;64.40;;;;;;5105019;28;20020;-31
2021/03/05 07:04:42;;;;;;;0.88;0.73;;;18.30;64.30;;;;;;5095821;27;20131;-34
2021/03/05 07:07:09;;;;;;;0.60;0.60;;;18.30;64.20;;;;;;5096032;28;20035;-31
2021/03/05 07:09:42;;;;;;;0.60;0.60;;;18.30;64.30;;;;;;5091547;28;20732;-38
2021/03/05 07:12:11;;;;;;;0.70;0.70;;;18.20;64.50;;;;;;5092414;27;20036;-37
2021/03/05 07:14:38;;;;;;;0.60;0.60;;;18.30;64.30;;;;;;5106754;28;20063;-35
2021/03/05 07:17:04;;;;;;;0.90;0.90;;;18.20;64.30;;;;;;5099197;28;20052;-37
2021/03/05 07:19:32;;;;;;;0.60;0.60;;;18.30;64.30;;;;;;5092644;28;20085;-35
2021/03/05 07:21:57;;;;;;;0.88;0.88;;;18.20;64.30;;;;;;5092407;27;20046;-34
2021/03/05 07:24:24;;;;;;;1.10;0.85;;;18.20;64.50;;;;;;5109357;28;20103;-33
2021/03/05 07:26:53;;;;;;;0.90;0.90;;;18.20;64.40;;;;;;5109165;28;20031;-32
2021/03/05 07:29:24;;;;;;;0.68;0.68;;;18.20;64.40;;;;;;5105632;28;20044;-32
2021/03/05 07:32:00;;;;;;;0.90;0.90;;;18.20;64.30;;;;;;5100478;28;20457;-31
2021/03/05 07:34:27;;;;;;;1.20;0.70;;;18.30;64.10;;;;;;5104125;28;20035;-34
2021/03/05 07:36:59;;;;;;;0.70;0.70;;;18.30;64.00;;;;;;5102522;28;20051;-36
2021/03/05 07:39:27;;;;;;;0.55;0.55;;;18.30;64.10;;;;;;5098685;28;20070;-34
2021/03/05 07:41:54;;;;;;;0.70;0.70;;;18.20;64.00;;;;;;5105001;28;20045;-40
2021/03/05 07:44:19;;;;;;;0.68;0.68;;;18.20;64.00;;;;;;5105711;28;20026;-38
2021/03/05 07:46:46;;;;;;;1.67;0.70;;;18.30;64.00;;;;;;5103508;28;20040;-36
2021/03/05 07:49:12;;;;;;;0.90;0.60;;;18.20;63.90;;;;;;5104318;28;20085;-34
2021/03/05 07:51:37;;;;;;;1.30;1.20;;;18.20;63.90;;;;;;5103523;28;20032;-32
2021/03/05 07:54:05;;;;;;;1.80;1.00;;;18.20;64.90;;;;;;5084739;28;20054;-34
2021/03/05 07:56:49;;;;;;;0.63;0.63;;;18.20;63.90;;;;;;5104507;28;20608;-36
2021/03/05 07:59:37;;;;;;;0.90;0.90;;;18.20;63.80;;;;;;5107379;28;20398;-34
2021/03/05 08:02:02;;;;;;;0.80;0.70;;;18.20;63.80;;;;;;5102290;28;20020;-34
2021/03/05 08:04:48;;;;;;;0.73;0.73;;;18.20;63.90;;;;;;5104867;28;20024;-33
2021/03/05 08:07:13;;;;;;;0.60;0.60;;;18.20;63.90;;;;;;5103395;28;20058;-35
2021/03/05 08:09:39;;;;;;;0.60;0.60;;;18.20;64.00;;;;;;5102498;28;20051;-36
2021/03/05 08:12:28;;;;;;;0.70;0.70;;;18.20;63.80;;;;;;5105763;28;20020;-35
2021/03/05 08:15:09;;;;;;;0.60;0.60;;;18.20;63.80;;;;;;5105492;28;20031;-37
2021/03/05 08:17:39;;;;;;;1.95;0.70;;;18.10;64.10;;;;;;5105610;28;20024;-34
2021/03/05 08:20:06;;;;;;;0.60;0.60;;;18.10;64.10;;;;;;5103486;28;20091;-35
2021/03/05 08:22:32;;;;;;;0.60;0.57;;;18.10;64.20;;;;;;5104931;28;20028;-36
2021/03/05 08:25:20;;;;;;;0.65;0.60;;;18.10;64.20;;;;;;5103738;28;20019;-36
2021/03/05 08:27:47;;;;;;;0.70;0.70;;;18.20;63.90;;;;;;5102273;28;20401;-33
2021/03/05 08:30:13;;;;;;;0.63;0.63;;;18.20;63.90;;;;;;5109920;27;20505;-35
2021/03/05 08:32:50;;;;;;;1.05;0.80;;;18.10;64.20;;;;;;5105920;28;20047;-32
2021/03/05 08:35:17;;;;;;;0.52;0.52;;;18.10;64.30;;;;;;5104174;28;20027;-36
2021/03/05 08:37:47;;;;;;;0.80;0.80;;;18.20;64.10;;;;;;5103955;28;20393;-36
2021/03/05 08:40:13;;;;;;;0.60;0.60;;;18.20;63.80;;;;;;5104968;28;20016;-33
2021/03/05 08:42:40;;;;;;;0.50;0.50;;;18.20;64.10;;;;;;5104346;28;20019;-37
2021/03/05 08:45:30;;;;;;;0.63;0.63;;;18.20;64.20;;;;;;5103422;28;20451;-32
2021/03/05 08:47:59;;;;;;;0.70;0.70;;;18.20;64.20;;;;;;5104492;28;20020;-35
2021/03/05 08:50:30;;;;;;;0.50;0.50;;;18.20;64.00;;;;;;5105025;28;20028;-34
2021/03/05 08:53:00;;;;;;;0.65;0.65;;;18.20;63.80;;;;;;5103380;28;20414;-39
2021/03/05 08:55:32;;;;;;;0.60;0.60;;;18.20;63.80;;;;;;5105693;28;20027;-36
2021/03/05 08:57:58;;;;;;;0.50;0.50;;;18.20;63.80;;;;;;5102706;28;20036;-34
2021/03/05 09:00:30;;;;;;;1.40;0.35;;;18.30;63.60;;;;;;5102418;28;20076;-37
2021/03/05 09:03:07;;;;;;;0.50;0.50;;;18.30;63.70;;;;;;5102263;28;20523;-40
2021/03/05 09:05:34;;;;;;;0.65;0.52;;;18.20;63.60;;;;;;5108706;28;20038;-34
2021/03/05 09:08:00;;;;;;;0.43;0.43;;;18.20;63.70;;;;;;5107008;28;20024;-33
2021/03/05 09:10:47;;;;;;;0.70;0.70;;;18.20;63.60;;;;;;5107545;28;20110;-32
2021/03/05 09:13:14;;;;;;;0.82;0.40;;;18.20;63.80;;;;;;5105703;28;20028;-38
2021/03/05 09:15:51;;;;;;;0.70;0.70;;;18.20;63.90;;;;;;5106291;27;20034;-37
2021/03/05 09:18:21;;;;;;;0.43;0.40;;;18.20;63.80;;;;;;5104423;28;20402;-37
2021/03/05 09:20:48;;;;;;;0.60;0.60;;;18.20;63.70;;;;;;5108474;28;20024;-37
2021/03/05 09:23:26;;;;;;;0.40;0.40;;;18.20;63.70;;;;;;5108333;28;20035;-36
2021/03/05 09:25:54;;;;;;;0.55;0.55;;;18.20;63.80;;;;;;5106755;28;20113;-32
2021/03/05 09:28:23;;;;;;;0.52;0.52;;;18.10;64.00;;;;;;5107017;28;20044;-34
2021/03/05 09:30:58;;;;;;;0.40;0.40;;;18.10;64.30;;;;;;5103554;28;20028;-40
2021/03/05 09:33:31;;;;;;;0.52;0.52;;;18.10;64.20;;;;;;5106985;28;20039;-41
2021/03/05 09:36:18;;;;;;;0.95;0.50;;;18.10;64.10;;;;;;5103069;28;20020;-36
2021/03/05 09:38:54;;;;;;;0.40;0.40;;;18.00;64.40;;;;;;5112622;28;20118;-41
2021/03/05 09:41:24;;;;;;;0.52;0.47;;;18.10;64.20;;;;;;5108107;28;20701;-37
2021/03/05 09:44:00;;;;;;;0.50;0.50;;;18.00;64.40;;;;;;5106523;28;20022;-37
2021/03/05 09:46:46;;;;;;;0.95;0.55;;;18.00;64.50;;;;;;5108450;28;20027;-36
2021/03/05 09:49:25;;;;;;;0.60;0.60;;;18.00;64.70;;;;;;5110435;28;20440;-38
2021/03/05 09:51:51;;;;;;;0.77;0.77;;;17.90;64.90;;;;;;5102985;28;20019;-39
2021/03/05 09:54:18;;;;;;;2.53;0.73;;;17.90;64.90;;;;;;5110726;28;20032;-38
2021/03/05 09:56:45;;;;;;;2.50;0.90;;;17.90;64.40;;;;;;5113442;27;20101;-35
2021/03/05 09:59:10;;;;;;;2.97;0.90;;;17.90;64.90;;;;;;5099918;28;20034;-36
2021/03/05 10:01:43;;;;;;;2.13;0.88;;;18.00;64.60;;;;;;5099449;28;20028;-40
2021/03/05 10:04:10;;;;;;;0.88;0.77;;;18.00;64.80;;;;;;5106008;28;20070;-39
2021/03/05 10:06:35;;;;;;;0.95;0.88;;;18.10;64.90;;;;;;5102325;28;20032;-38
2021/03/05 10:09:07;;;;;;;12.00;1.23;;;18.10;64.20;;;;;;5107293;28;20032;-45
2021/03/05 10:11:35;;;;;;;1.17;0.80;;;18.20;64.60;;;;;;5109622;28;20060;-35
2021/03/05 10:14:02;;;;;;;1.63;0.70;;;18.20;64.40;;;;;;5106403;28;20550;-38
2021/03/05 10:16:30;;;;;;;0.85;0.80;;;18.20;64.20;;;;;;5109016;27;20042;-36
2021/03/05 10:18:59;;;;;;;1.00;1.00;;;18.10;64.30;;;;;;5108427;28;20027;-35
2021/03/05 10:21:24;;;;;;;1.63;0.90;;;18.10;65.00;;;;;;5107651;27;20046;-40
2021/03/05 10:23:50;;;;;;;0.85;0.85;;;18.10;64.80;;;;;;5104620;28;20031;-41
2021/03/05 10:26:26;;;;;;;1.77;0.80;;;18.20;64.50;;;;;;5106802;28;20073;-38
2021/03/05 10:29:05;;;;;;;1.25;0.70;;;18.10;64.50;;;;;;5106072;28;20114;-38
2021/03/05 10:31:50;;;;;;;1.27;0.80;;;18.10;64.50;;;;;;5104816;28;20024;-38
2021/03/05 10:34:25;;;;;;;2.40;0.75;;;18.00;64.70;;;;;;5103388;28;20031;-41
2021/03/05 10:36:51;;;;;;;0.73;0.70;;;18.00;64.80;;;;;;5107108;28;20030;-44
2021/03/05 10:39:16;;;;;;;0.88;0.85;;;18.00;64.60;;;;;;5107846;28;20024;-36
2021/03/05 10:42:01;;;;;;;0.80;0.80;;;18.10;64.60;;;;;;5109534;28;20072;-35
2021/03/05 10:44:28;;;;;;;0.90;0.90;;;18.10;64.40;;;;;;5107048;28;20124;-38
2021/03/05 10:47:04;;;;;;;0.85;0.80;;;18.00;64.30;;;;;;5103884;28;20028;-41
2021/03/05 10:49:30;;;;;;;0.80;0.80;;;18.00;64.50;;;;;;5103548;28;20072;-39
2021/03/05 10:51:55;;;;;;;2.72;0.70;;;18.10;64.30;;;;;;5103945;28;20039;-36
2021/03/05 10:54:21;;;;;;;2.97;0.90;;;18.00;64.30;;;;;;5106342;28;20861;-40
2021/03/05 10:56:48;;;;;;;0.60;0.52;;;18.00;64.40;;;;;;5107557;28;20020;-35
2021/03/05 10:59:16;;;;;;;0.80;0.80;;;18.10;64.60;;;;;;5106116;28;20157;-38
2021/03/05 11:01:42;;;;;;;1.67;0.90;;;18.10;64.30;;;;;;5100888;28;20027;-40
2021/03/05 11:04:07;;;;;;;0.80;0.70;;;18.10;64.50;;;;;;5104285;28;20012;-41
2021/03/05 11:06:33;;;;;;;1.30;0.75;;;18.10;64.60;;;;;;5101635;28;20515;-37
2021/03/05 11:09:00;;;;;;;0.60;0.60;;;18.10;64.40;;;;;;5107879;28;20031;-34
2021/03/05 11:11:25;;;;;;;1.77;0.68;;;18.20;64.00;;;;;;5106722;28;20035;-38
2021/03/05 11:13:51;;;;;;;1.23;0.90;;;18.20;63.80;;;;;;4749761;28;9999779;-38
2021/03/05 11:16:17;;;;;;;0.80;0.80;;;18.10;63.90;;;;;;5103578;28;20023;-35
2021/03/05 11:18:42;;;;;;;4.75;0.95;;;18.10;64.10;;;;;;5103128;28;20398;-34
2021/03/05 11:21:08;;;;;;;2.50;0.80;;;18.00;64.40;;;;;;5104199;28;20055;-36
2021/03/05 11:23:34;;;;;;;1.15;1.00;;;18.00;64.30;;;;;;5105265;28;20035;-37
2021/03/05 11:25:59;;;;;;;0.90;0.90;;;18.10;64.40;;;;;;5104690;28;20024;-33
2021/03/05 11:28:25;;;;;;;1.63;1.00;;;18.10;64.60;;;;;;5103777;28;20055;-37
2021/03/05 11:30:51;;;;;;;1.02;0.88;;;18.00;64.70;;;;;;5103379;28;20449;-37
2021/03/05 11:33:17;;;;;;;1.60;0.90;;;18.00;65.10;;;;;;5104685;27;20137;-39
2021/03/05 11:35:42;;;;;;;1.38;0.95;;;18.10;64.60;;;;;;5104864;28;20139;-39
2021/03/05 11:38:08;;;;;;;1.23;0.90;;;18.20;64.30;;;;;;5103896;28;20595;-31
2021/03/05 11:40:33;;;;;;;0.90;0.90;;;18.20;64.30;;;;;;5103927;28;20027;-38
2021/03/05 11:42:59;;;;;;;1.40;1.10;;;18.20;64.40;;;;;;5101230;28;20023;-40
2021/03/05 11:45:25;;;;;;;1.13;1.02;;;18.20;64.50;;;;;;5104680;28;20501;-42
2021/03/05 11:47:50;;;;;;;6.60;1.60;;;18.20;64.40;;;;;;5105125;28;20027;-41
2021/03/05 11:50:16;;;;;;;8.25;1.65;;;18.20;64.60;;;;;;5104395;28;20028;-42
2021/03/05 11:52:42;;;;;;;13.10;1.35;;;18.20;64.60;;;;;;5102166;28;20047;-39
2021/03/05 11:55:08;;;;;;;4.95;1.40;;;18.30;64.70;;;;;;5094269;28;20058;-41
2021/03/05 11:57:34;;;;;;;3.42;1.42;;;18.30;64.70;;;;;;5102750;28;20081;-40
2021/03/05 11:59:59;;;;;;;10.60;1.83;;;18.30;64.60;;;;;;5093771;28;20031;-42
2021/03/05 12:02:25;;;;;;;11.93;1.88;;;18.30;64.60;;;;;;5093411;28;20027;-48
2021/03/05 12:04:51;;;;;;;7.13;1.73;;;18.40;64.70;;;;;;5097898;28;20031;-35
2021/03/05 12:07:16;;;;;;;8.45;1.75;;;18.40;64.30;;;;;;5101479;28;20048;-40
2021/03/05 12:09:42;;;;;;;11.57;1.80;;;18.50;64.10;;;;;;5103430;28;20036;-37
2021/03/05 12:12:08;;;;;;;8.32;1.60;;;18.40;63.90;;;;;;5102779;28;20072;-33
2021/03/05 12:14:33;;;;;;;4.53;1.67;;;18.60;63.50;;;;;;5104262;28;20038;-34
2021/03/05 12:16:59;;;;;;;7.38;1.38;;;18.80;62.80;;;;;;5103514;28;20114;-37
2021/03/05 12:19:24;;;;;;;6.78;1.30;;;18.80;62.30;;;;;;5104113;28;20513;-36
2021/03/05 12:21:50;;;;;;;3.75;1.10;;;18.90;62.50;;;;;;5102557;28;20391;-32
2021/03/05 12:24:16;;;;;;;4.95;1.30;;;18.90;62.90;;;;;;5101178;28;20047;-35
2021/03/05 12:26:41;;;;;;;5.65;1.23;;;18.90;63.00;;;;;;5104661;28;20028;-35
2021/03/05 12:29:08;;;;;;;4.22;1.80;;;18.80;63.20;;;;;;5101968;28;20139;-38
2021/03/05 12:31:33;;;;;;;6.20;1.65;;;18.80;63.50;;;;;;5101094;28;20066;-36
2021/03/05 12:34:01;;;;;;;7.95;1.95;;;18.70;63.80;;;;;;5099128;28;20474;-37
2021/03/05 12:36:27;;;;;;;4.20;1.27;;;18.60;63.80;;;;;;5098544;28;20028;-37
2021/03/05 12:38:53;;;;;;;4.93;1.10;;;18.60;63.90;;;;;;5104608;28;20084;-38
2021/03/05 12:41:18;;;;;;;3.25;1.52;;;18.70;63.80;;;;;;5102182;28;20038;-35
2021/03/05 12:43:44;;;;;;;4.00;1.70;;;18.70;63.80;;;;;;5100711;28;20039;-39
2021/03/05 12:46:09;;;;;;;4.68;1.63;;;18.80;63.60;;;;;;5103215;28;20073;-36
2021/03/05 12:48:35;;;;;;;6.05;1.60;;;18.70;63.50;;;;;;5103904;28;20027;-35
2021/03/05 12:51:00;;;;;;;4.57;1.35;;;18.70;63.50;;;;;;5105476;28;20093;-34